Time;durP1;ratioP1;P1;durP2;ratioP2;P2;SDS_P1;SDS_P2;PMS_P1;PMS_P2;Temp;Humidity;BMP_temperature;BMP_pressure;BME280_temperature;BME280_humidity;BME280_pressure;Samples;Min_cycle;Max_cycle;Signal;HPM_P1;HPM_P2
2022/11/28 00:02:07;;;;;;;35.72;12.85;;;;;;;;;;4967770;28;20034;-63
2022/11/28 00:04:33;;;;;;;39.30;15.48;;;;;;;;;;4970022;28;20464;-64
2022/11/28 00:06:58;;;;;;;48.13;17.23;;;;;;;;;;4969560;28;20363;-63
2022/11/28 00:09:24;;;;;;;20.73;9.50;;;;;;;;;;4970255;28;20034;-62
2022/11/28 00:11:50;;;;;;;41.83;14.52;;;;;;;;;;4969409;28;20483;-62
2022/11/28 00:14:17;;;;;;;36.67;14.95;;;;;;;;;;4970390;28;20339;-62
2022/11/28 00:16:43;;;;;;;96.13;30.92;;;;;;;;;;4969774;28;20595;-63
2022/11/28 00:19:11;;;;;;;85.78;26.50;;;;;;;;;;4969363;28;20543;-63
2022/11/28 00:21:37;;;;;;;61.28;20.17;;;;;;;;;;4952079;28;20436;-63
2022/11/28 00:24:03;;;;;;;87.10;25.60;;;;;;;;;;4969243;28;20363;-64
2022/11/28 00:26:33;;;;;;;107.80;33.97;;;;;;;;;;4970388;28;20096;-63
2022/11/28 00:28:59;;;;;;;60.22;22.73;;;;;;;;;;4970085;28;20056;-63
2022/11/28 00:31:28;;;;;;;54.42;19.30;;;;;;;;;;4971001;28;20436;-63
2022/11/28 00:33:55;;;;;;;33.50;13.27;;;;;;;;;;4969219;28;20411;-63
2022/11/28 00:36:21;;;;;;;69.35;20.83;;;;;;;;;;4969520;28;20398;-63
2022/11/28 00:38:48;;;;;;;62.58;20.10;;;;;;;;;;4968969;28;20436;-63
2022/11/28 00:41:21;;;;;;;44.67;15.68;;;;;;;;;;4969746;28;20328;-63
2022/11/28 00:43:48;;;;;;;59.85;20.17;;;;;;;;;;4969413;28;20487;-64
2022/11/28 00:46:15;;;;;;;67.05;18.25;;;;;;;;;;4969119;28;20345;-63
2022/11/28 00:48:40;;;;;;;158.73;38.15;;;;;;;;;;4969294;28;20053;-62
2022/11/28 00:51:09;;;;;;;138.80;36.08;;;;;;;;;;4969368;28;20487;-63
2022/11/28 00:53:35;;;;;;;96.03;28.05;;;;;;;;;;4969388;28;20430;-63
2022/11/28 00:56:04;;;;;;;90.72;25.75;;;;;;;;;;4969926;28;20400;-62
2022/11/28 00:58:31;;;;;;;118.00;33.60;;;;;;;;;;4969406;28;20348;-62
2022/11/28 01:00:57;;;;;;;84.78;25.95;;;;;;;;;;4967011;28;20034;-62
2022/11/28 01:03:22;;;;;;;91.28;29.25;;;;;;;;;;4966464;28;20491;-63
2022/11/28 01:05:48;;;;;;;73.72;25.08;;;;;;;;;;4968005;28;20384;-62
2022/11/28 01:08:13;;;;;;;57.10;20.10;;;;;;;;;;4968820;28;20436;-63
2022/11/28 01:10:44;;;;;;;28.55;12.63;;;;;;;;;;4969237;28;20321;-62
2022/11/28 01:13:10;;;;;;;44.42;16.38;;;;;;;;;;4969147;28;20431;-63
2022/11/28 01:15:40;;;;;;;31.92;13.05;;;;;;;;;;4968973;28;20431;-64
2022/11/28 01:18:06;;;;;;;50.15;18.02;;;;;;;;;;4970291;28;20433;-63
2022/11/28 01:20:31;;;;;;;45.72;16.83;;;;;;;;;;4968986;28;20399;-63
2022/11/28 01:22:57;;;;;;;35.22;13.73;;;;;;;;;;4950766;28;20506;-62
2022/11/28 01:25:23;;;;;;;46.53;16.92;;;;;;;;;;4969210;28;20033;-63
2022/11/28 01:27:48;;;;;;;27.08;12.90;;;;;;;;;;4968782;28;20395;-63
2022/11/28 01:30:14;;;;;;;36.53;13.57;;;;;;;;;;4968050;28;20037;-63
2022/11/28 01:32:39;;;;;;;34.10;14.52;;;;;;;;;;4968581;28;20428;-63
2022/11/28 01:35:05;;;;;;;39.80;15.13;;;;;;;;;;4967974;28;20347;-64
2022/11/28 01:37:31;;;;;;;36.67;13.57;;;;;;;;;;4968018;28;20487;-63
2022/11/28 01:39:56;;;;;;;66.18;23.90;;;;;;;;;;4969802;28;20399;-62
2022/11/28 01:42:22;;;;;;;37.78;15.15;;;;;;;;;;4968695;28;20047;-63
2022/11/28 01:44:48;;;;;;;25.38;11.75;;;;;;;;;;4968108;28;20098;-64
2022/11/28 01:47:29;;;;;;;35.53;15.02;;;;;;;;;;4968376;28;20490;-62
2022/11/28 01:49:55;;;;;;;42.90;16.88;;;;;;;;;;4968120;28;20443;-62
2022/11/28 01:52:22;;;;;;;26.17;12.27;;;;;;;;;;4968605;28;20417;-62
2022/11/28 01:54:52;;;;;;;40.15;14.63;;;;;;;;;;4950463;28;20380;-63
2022/11/28 01:57:22;;;;;;;52.75;20.42;;;;;;;;;;4968440;28;20633;-62
2022/11/28 01:59:55;;;;;;;44.35;17.70;;;;;;;;;;4950504;28;20096;-63
2022/11/28 02:02:56;;;;;;;122.82;35.95;;;;;;;;;;4950193;28;20511;-64
2022/11/28 02:05:21;;;;;;;69.47;23.15;;;;;;;;;;4909621;28;20461;-63
2022/11/28 02:07:49;;;;;;;40.38;14.40;;;;;;;;;;4929461;28;20464;-63
2022/11/28 02:10:31;;;;;;;52.38;17.30;;;;;;;;;;4929138;28;20353;-63
2022/11/28 02:13:25;;;;;;;53.78;19.40;;;;;;;;;;4929340;28;20385;-62
2022/11/28 02:15:56;;;;;;;51.55;18.98;;;;;;;;;;4926658;28;20426;-62
2022/11/28 02:18:28;;;;;;;59.88;20.42;;;;;;;;;;4929178;28;20338;-63
2022/11/28 02:21:10;;;;;;;46.42;19.20;;;;;;;;;;4928405;28;20438;-64
2022/11/28 02:23:53;;;;;;;54.42;20.25;;;;;;;;;;4928787;28;20415;-63
2022/11/28 02:26:40;;;;;;;59.63;22.15;;;;;;;;;;4927378;28;20357;-63
2022/11/28 02:29:34;;;;;;;23.13;9.45;;;;;;;;;;4928277;28;20421;-63
2022/11/28 02:32:21;;;;;;;18.77;10.10;;;;;;;;;;4904326;28;20480;-63
2022/11/28 02:35:17;;;;;;;25.08;11.25;;;;;;;;;;4929043;28;20672;-62
2022/11/28 02:38:21;;;;;;;17.30;8.52;;;;;;;;;;4928522;28;20333;-63
2022/11/28 02:41:30;;;;;;;45.63;16.08;;;;;;;;;;4927709;28;20460;-64
2022/11/28 02:44:22;;;;;;;24.95;11.02;;;;;;;;;;4908752;28;20213;-63
2022/11/28 02:47:09;;;;;;;17.35;8.80;;;;;;;;;;4926935;28;20465;-62
2022/11/28 02:49:48;;;;;;;18.52;8.75;;;;;;;;;;4927913;28;20347;-64
2022/11/28 02:52:20;;;;;;;27.40;11.15;;;;;;;;;;4927192;28;20331;-63
2022/11/28 02:54:48;;;;;;;22.63;9.63;;;;;;;;;;4927552;28;20104;-63
2022/11/28 02:57:13;;;;;;;21.88;10.23;;;;;;;;;;4927524;28;20591;-63
2022/11/28 02:59:42;;;;;;;22.92;10.43;;;;;;;;;;4928379;28;20022;-63
2022/11/28 03:02:22;;;;;;;30.73;14.67;;;;;;;;;;4927816;28;20464;-62
2022/11/28 03:05:50;;;;;;;22.85;11.30;;;;;;;;;;4939485;28;20361;-63
2022/11/28 03:08:53;;;;;;;28.63;12.20;;;;;;;;;;4868251;29;20476;-62
2022/11/28 03:12:02;;;;;;;42.88;16.30;;;;;;;;;;4868283;29;20394;-62
2022/11/28 03:14:56;;;;;;;27.95;12.13;;;;;;;;;;4951341;28;20084;-64
2022/11/28 03:17:53;;;;;;;16.27;8.35;;;;;;;;;;4949286;28;20322;-62
2022/11/28 03:20:47;;;;;;;18.90;8.93;;;;;;;;;;4966722;28;20344;-63
2022/11/28 03:23:19;;;;;;;19.23;8.18;;;;;;;;;;4967083;28;20371;-62
2022/11/28 03:26:00;;;;;;;16.83;8.07;;;;;;;;;;4949579;28;20387;-62
2022/11/28 03:28:32;;;;;;;20.15;9.20;;;;;;;;;;4967638;28;20112;-63
2022/11/28 03:31:13;;;;;;;26.05;9.90;;;;;;;;;;4966882;28;20037;-64
2022/11/28 03:33:46;;;;;;;21.27;10.00;;;;;;;;;;4966606;28;20033;-64
2022/11/28 03:36:19;;;;;;;23.58;10.43;;;;;;;;;;4949523;28;20436;-63
2022/11/28 03:38:52;;;;;;;17.33;8.93;;;;;;;;;;4953363;28;20521;-63
2022/11/28 03:41:36;;;;;;;18.38;9.15;;;;;;;;;;4953362;28;20460;-62
2022/11/28 03:44:10;;;;;;;16.40;9.30;;;;;;;;;;4953834;28;20384;-63
2022/11/28 03:46:42;;;;;;;23.23;11.98;;;;;;;;;;4953388;28;20522;-63
2022/11/28 03:49:09;;;;;;;18.90;9.73;;;;;;;;;;4952596;28;20459;-63
2022/11/28 03:51:38;;;;;;;17.65;9.18;;;;;;;;;;4953066;28;20484;-63
2022/11/28 03:54:15;;;;;;;19.52;9.60;;;;;;;;;;4970069;28;20597;-63
2022/11/28 03:57:31;;;;;;;28.70;14.20;;;;;;;;;;4970450;28;20432;-63
2022/11/28 03:59:59;;;;;;;27.58;13.63;;;;;;;;;;4870593;29;20108;-63
2022/11/28 04:03:02;;;;;;;23.30;11.85;;;;;;;;;;4955182;28;20487;-64
2022/11/28 04:05:59;;;;;;;25.20;10.20;;;;;;;;;;4969798;28;20456;-62
2022/11/28 04:09:10;;;;;;;22.77;10.63;;;;;;;;;;4970396;28;20423;-62
2022/11/28 04:11:55;;;;;;;26.70;12.00;;;;;;;;;;4908627;28;20474;-63
2022/11/28 04:14:25;;;;;;;25.40;12.48;;;;;;;;;;4954450;28;20060;-62
2022/11/28 04:16:57;;;;;;;22.48;11.98;;;;;;;;;;4953140;28;20056;-62
2022/11/28 04:19:46;;;;;;;16.67;7.78;;;;;;;;;;4952345;28;20359;-63
2022/11/28 04:22:29;;;;;;;21.58;9.77;;;;;;;;;;4952726;28;20431;-63
2022/11/28 04:25:09;;;;;;;19.20;10.30;;;;;;;;;;4970540;28;20553;-64
2022/11/28 04:27:45;;;;;;;20.17;11.32;;;;;;;;;;4953116;28;20439;-64
2022/11/28 04:30:12;;;;;;;23.70;11.35;;;;;;;;;;4952360;28;20428;-63
2022/11/28 04:32:45;;;;;;;30.13;13.98;;;;;;;;;;4951149;28;20458;-63
2022/11/28 04:35:23;;;;;;;26.75;12.20;;;;;;;;;;4952661;28;20461;-62
2022/11/28 04:37:51;;;;;;;22.63;11.48;;;;;;;;;;4970173;28;20347;-63
2022/11/28 04:40:18;;;;;;;28.17;11.68;;;;;;;;;;4969630;28;20025;-62
2022/11/28 04:42:52;;;;;;;17.80;8.57;;;;;;;;;;4951760;28;20472;-63
2022/11/28 04:45:42;;;;;;;26.33;11.60;;;;;;;;;;4952432;28;20444;-63
2022/11/28 04:48:08;;;;;;;23.02;10.45;;;;;;;;;;4969036;28;20418;-62
2022/11/28 04:50:52;;;;;;;14.93;8.27;;;;;;;;;;4953153;28;20400;-62
2022/11/28 04:53:30;;;;;;;16.38;8.68;;;;;;;;;;4952956;28;20523;-63
2022/11/28 04:56:01;;;;;;;19.30;10.85;;;;;;;;;;4952222;28;20026;-62
2022/11/28 04:58:36;;;;;;;18.67;9.88;;;;;;;;;;4951855;28;20334;-62
2022/11/28 05:01:06;;;;;;;17.38;8.93;;;;;;;;;;4968564;28;20470;-62
2022/11/28 05:03:32;;;;;;;23.92;13.18;;;;;;;;;;4952164;28;20499;-62
2022/11/28 05:05:58;;;;;;;18.50;10.93;;;;;;;;;;4944354;28;20484;-62
2022/11/28 05:08:24;;;;;;;24.90;12.63;;;;;;;;;;4931697;28;20525;-64
2022/11/28 05:10:49;;;;;;;25.75;12.63;;;;;;;;;;4929755;28;20424;-64
2022/11/28 05:13:15;;;;;;;23.58;12.50;;;;;;;;;;4929876;28;20456;-63
2022/11/28 05:15:41;;;;;;;24.65;11.90;;;;;;;;;;4929728;28;20543;-63
2022/11/28 05:18:06;;;;;;;20.73;10.60;;;;;;;;;;4929806;28;20468;-63
2022/11/28 05:20:32;;;;;;;37.67;17.92;;;;;;;;;;4930579;28;20456;-64
2022/11/28 05:22:58;;;;;;;30.38;15.50;;;;;;;;;;4929976;28;20396;-64
2022/11/28 05:25:23;;;;;;;28.45;12.38;;;;;;;;;;4929679;28;20445;-62
2022/11/28 05:27:49;;;;;;;24.25;10.43;;;;;;;;;;4929715;28;20346;-63
2022/11/28 05:30:14;;;;;;;23.30;11.93;;;;;;;;;;4929121;28;20417;-62
2022/11/28 05:32:40;;;;;;;25.35;11.43;;;;;;;;;;4914604;28;20525;-62
2022/11/28 05:35:06;;;;;;;23.40;11.45;;;;;;;;;;4949703;28;20364;-62
2022/11/28 05:37:33;;;;;;;25.05;12.52;;;;;;;;;;4948873;28;20369;-63
2022/11/28 05:39:58;;;;;;;23.35;12.50;;;;;;;;;;4950002;28;20412;-62
2022/11/28 05:42:24;;;;;;;21.45;9.82;;;;;;;;;;4913194;28;20045;-62
2022/11/28 05:44:50;;;;;;;31.85;12.98;;;;;;;;;;4964441;28;20349;-64
2022/11/28 05:47:16;;;;;;;24.67;12.63;;;;;;;;;;4949349;28;20053;-63
2022/11/28 05:49:42;;;;;;;20.05;10.23;;;;;;;;;;4949827;28;20421;-63
2022/11/28 05:52:08;;;;;;;21.95;11.55;;;;;;;;;;4948414;28;20448;-62
2022/11/28 05:54:33;;;;;;;22.25;11.82;;;;;;;;;;4948857;28;20128;-62
2022/11/28 05:56:59;;;;;;;22.52;11.93;;;;;;;;;;4947867;28;20380;-62
2022/11/28 05:59:24;;;;;;;21.33;11.30;;;;;;;;;;4948639;28;20372;-62
2022/11/28 06:01:50;;;;;;;22.50;9.57;;;;;;;;;;4946700;28;20388;-62
2022/11/28 06:04:15;;;;;;;21.13;10.70;;;;;;;;;;4949553;28;20034;-63
2022/11/28 06:06:41;;;;;;;26.67;11.65;;;;;;;;;;4968060;28;20476;-64
2022/11/28 06:09:06;;;;;;;35.10;14.07;;;;;;;;;;4967225;28;20413;-62
2022/11/28 06:11:33;;;;;;;34.50;14.88;;;;;;;;;;4967302;28;20380;-63
2022/11/28 06:13:59;;;;;;;26.45;11.88;;;;;;;;;;4967604;28;20368;-62
2022/11/28 06:16:27;;;;;;;32.58;12.18;;;;;;;;;;4967802;28;20363;-62
2022/11/28 06:18:56;;;;;;;32.42;12.98;;;;;;;;;;4904582;28;20351;-63
2022/11/28 06:21:23;;;;;;;28.23;12.63;;;;;;;;;;4969583;28;20436;-63
2022/11/28 06:23:48;;;;;;;32.35;13.38;;;;;;;;;;4950283;28;20341;-64
2022/11/28 06:26:18;;;;;;;24.42;10.93;;;;;;;;;;4967395;28;20518;-62
2022/11/28 06:28:44;;;;;;;24.35;12.27;;;;;;;;;;4966932;28;20344;-63
2022/11/28 06:31:19;;;;;;;22.33;10.95;;;;;;;;;;4967777;28;20064;-61
2022/11/28 06:33:46;;;;;;;23.65;12.15;;;;;;;;;;4967973;28;20033;-62
2022/11/28 06:36:13;;;;;;;23.13;10.65;;;;;;;;;;4968256;28;20526;-64
2022/11/28 06:38:39;;;;;;;30.27;12.68;;;;;;;;;;4967287;28;20029;-63
2022/11/28 06:41:10;;;;;;;27.20;11.90;;;;;;;;;;4966852;28;20510;-62
2022/11/28 06:43:36;;;;;;;24.45;12.20;;;;;;;;;;4949385;28;20340;-62
2022/11/28 06:46:02;;;;;;;23.35;11.32;;;;;;;;;;4968031;28;20367;-62
2022/11/28 06:48:28;;;;;;;25.42;11.50;;;;;;;;;;4967488;28;20463;-63
2022/11/28 06:51:00;;;;;;;28.50;12.55;;;;;;;;;;4967680;28;20332;-62
2022/11/28 06:53:26;;;;;;;27.20;10.98;;;;;;;;;;4967258;28;20056;-62
2022/11/28 06:55:51;;;;;;;24.48;10.50;;;;;;;;;;4966541;28;20475;-63
2022/11/28 06:58:17;;;;;;;31.63;13.60;;;;;;;;;;4966930;28;20511;-62
2022/11/28 07:00:44;;;;;;;27.35;12.45;;;;;;;;;;4967570;28;20412;-62
2022/11/28 07:03:11;;;;;;;27.42;12.90;;;;;;;;;;4969129;28;20360;-62
2022/11/28 07:05:38;;;;;;;28.13;12.95;;;;;;;;;;4966729;28;20491;-63
2022/11/28 07:08:04;;;;;;;30.08;12.95;;;;;;;;;;4966612;28;20433;-63
2022/11/28 07:10:29;;;;;;;25.23;11.93;;;;;;;;;;4966694;28;20364;-62
2022/11/28 07:12:57;;;;;;;27.35;11.73;;;;;;;;;;4970605;28;20388;-63
2022/11/28 07:15:24;;;;;;;24.85;11.60;;;;;;;;;;4971193;28;20025;-62
2022/11/28 07:17:50;;;;;;;25.15;12.02;;;;;;;;;;4971030;28;20033;-63
2022/11/28 07:20:16;;;;;;;23.23;11.43;;;;;;;;;;4971330;28;20463;-62
2022/11/28 07:22:42;;;;;;;23.90;10.82;;;;;;;;;;4971269;28;20498;-64
2022/11/28 07:25:09;;;;;;;23.65;11.60;;;;;;;;;;4970549;28;20025;-62
2022/11/28 07:27:35;;;;;;;21.55;10.07;;;;;;;;;;4970417;28;20087;-63
2022/11/28 07:30:00;;;;;;;25.77;11.85;;;;;;;;;;4970901;28;20425;-62
2022/11/28 07:32:26;;;;;;;22.05;11.15;;;;;;;;;;4971134;28;20372;-62
2022/11/28 07:34:51;;;;;;;26.65;11.70;;;;;;;;;;4970137;28;20330;-62
2022/11/28 07:37:17;;;;;;;25.10;11.43;;;;;;;;;;4970719;28;20099;-62
2022/11/28 07:39:43;;;;;;;23.92;11.57;;;;;;;;;;4970568;28;20456;-64
2022/11/28 07:42:12;;;;;;;19.95;10.82;;;;;;;;;;4969905;28;20419;-62
2022/11/28 07:44:38;;;;;;;23.70;10.25;;;;;;;;;;4971715;28;20578;-63
2022/11/28 07:47:03;;;;;;;26.45;10.90;;;;;;;;;;4970483;28;20033;-62
2022/11/28 07:49:29;;;;;;;18.70;9.95;;;;;;;;;;4970155;28;20475;-62
2022/11/28 07:51:54;;;;;;;22.35;11.13;;;;;;;;;;4970407;28;20507;-63
2022/11/28 07:54:20;;;;;;;16.40;8.43;;;;;;;;;;4969966;28;20460;-62
2022/11/28 07:56:45;;;;;;;15.48;8.90;;;;;;;;;;4969979;28;20360;-64
2022/11/28 07:59:11;;;;;;;17.42;9.85;;;;;;;;;;4970610;28;20579;-62
2022/11/28 08:01:37;;;;;;;22.48;9.23;;;;;;;;;;4970641;28;20454;-65
2022/11/28 08:04:08;;;;;;;19.80;10.30;;;;;;;;;;4969858;28;20416;-63
2022/11/28 08:06:40;;;;;;;15.68;7.97;;;;;;;;;;4931091;28;20377;-64
2022/11/28 08:09:06;;;;;;;22.70;11.77;;;;;;;;;;4931127;28;20353;-62
2022/11/28 08:11:33;;;;;;;14.52;8.30;;;;;;;;;;4931898;28;20049;-64
2022/11/28 08:13:59;;;;;;;25.55;11.70;;;;;;;;;;4931215;28;20441;-63
2022/11/28 08:16:27;;;;;;;20.80;9.73;;;;;;;;;;4931168;28;20357;-62
2022/11/28 08:18:54;;;;;;;20.00;9.88;;;;;;;;;;4930114;28;20445;-62
2022/11/28 08:21:31;;;;;;;19.75;9.45;;;;;;;;;;4931184;28;20343;-61
2022/11/28 08:24:00;;;;;;;22.05;10.18;;;;;;;;;;4930848;28;20334;-62
2022/11/28 08:26:27;;;;;;;18.90;10.40;;;;;;;;;;4932405;28;20441;-62
2022/11/28 08:28:53;;;;;;;18.58;9.82;;;;;;;;;;4872843;28;20488;-63
2022/11/28 08:31:22;;;;;;;25.27;10.98;;;;;;;;;;4950780;28;20368;-63
2022/11/28 08:33:49;;;;;;;34.55;16.02;;;;;;;;;;4949739;28;20121;-63
2022/11/28 08:36:18;;;;;;;46.60;20.73;;;;;;;;;;4949851;28;20348;-62
2022/11/28 08:38:45;;;;;;;68.53;29.90;;;;;;;;;;4949733;28;20476;-63
2022/11/28 08:41:15;;;;;;;60.80;26.33;;;;;;;;;;4949693;28;20739;-62
2022/11/28 08:43:41;;;;;;;49.20;21.05;;;;;;;;;;4951244;28;20457;-63
2022/11/28 08:46:11;;;;;;;75.45;33.85;;;;;;;;;;4950239;28;20411;-62
2022/11/28 08:49:16;;;;;;;27.10;13.48;;;;;;;;;;4949995;28;20456;-62
2022/11/28 08:51:40;;;;;;;40.30;19.92;;;;;;;;;;4949193;28;20381;-63
2022/11/28 08:54:06;;;;;;;32.50;15.57;;;;;;;;;;4949614;28;20361;-62
2022/11/28 08:56:31;;;;;;;33.13;17.38;;;;;;;;;;4950202;28;20049;-64
2022/11/28 08:58:57;;;;;;;23.65;11.20;;;;;;;;;;4950055;28;20527;-63
2022/11/28 09:01:24;;;;;;;18.13;10.38;;;;;;;;;;4948514;28;20481;-62
2022/11/28 09:03:51;;;;;;;26.35;13.57;;;;;;;;;;4950536;28;20459;-62
2022/11/28 09:06:17;;;;;;;25.25;12.90;;;;;;;;;;4983650;28;20509;-62
2022/11/28 09:08:44;;;;;;;33.58;19.05;;;;;;;;;;4988382;28;20459;-62
2022/11/28 09:11:13;;;;;;;29.67;15.70;;;;;;;;;;4988609;28;20544;-62
2022/11/28 09:13:39;;;;;;;22.23;11.63;;;;;;;;;;4988438;28;20032;-62
2022/11/28 09:16:05;;;;;;;34.10;17.58;;;;;;;;;;4989956;28;20482;-63
2022/11/28 09:18:31;;;;;;;20.02;11.27;;;;;;;;;;4988320;28;20370;-62
2022/11/28 09:21:03;;;;;;;14.65;8.60;;;;;;;;;;4987874;28;20364;-63
2022/11/28 09:23:29;;;;;;;20.17;12.00;;;;;;;;;;4988389;28;20456;-63
2022/11/28 09:25:55;;;;;;;21.23;10.85;;;;;;;;;;4988506;28;20391;-62
2022/11/28 09:28:20;;;;;;;18.77;9.80;;;;;;;;;;4988864;28;20415;-62
2022/11/28 09:30:46;;;;;;;21.15;11.48;;;;;;;;;;4988198;28;20327;-62
2022/11/28 09:33:12;;;;;;;20.45;11.27;;;;;;;;;;4987717;28;20343;-62
2022/11/28 09:35:39;;;;;;;17.13;9.82;;;;;;;;;;4987169;28;20177;-63
2022/11/28 09:38:04;;;;;;;15.07;9.45;;;;;;;;;;4987955;28;20609;-62
2022/11/28 09:40:41;;;;;;;20.60;10.73;;;;;;;;;;4988234;28;20128;-62
2022/11/28 09:43:18;;;;;;;20.80;9.18;;;;;;;;;;4910568;28;20482;-63
2022/11/28 09:45:47;;;;;;;14.88;8.23;;;;;;;;;;4964716;28;20402;-62
2022/11/28 09:48:55;;;;;;;18.52;9.93;;;;;;;;;;4971290;28;20435;-62
2022/11/28 09:51:57;;;;;;;21.88;12.52;;;;;;;;;;4926100;28;20437;-63
2022/11/28 09:54:41;;;;;;;24.58;10.73;;;;;;;;;;4926777;28;20556;-63
2022/11/28 09:57:23;;;;;;;17.83;10.25;;;;;;;;;;4978731;28;20033;-62
2022/11/28 09:59:49;;;;;;;32.30;15.30;;;;;;;;;;4971445;28;20055;-63
2022/11/28 10:02:31;;;;;;;22.42;10.43;;;;;;;;;;4987409;28;20025;-63
2022/11/28 10:05:26;;;;;;;19.95;9.82;;;;;;;;;;4986659;28;20056;-64
2022/11/28 10:08:37;;;;;;;20.10;10.07;;;;;;;;;;4986801;28;20459;-63
2022/11/28 10:11:26;;;;;;;18.70;10.25;;;;;;;;;;4967332;28;20313;-63
2022/11/28 10:13:55;;;;;;;22.40;11.00;;;;;;;;;;4987202;28;20416;-62
2022/11/28 10:16:45;;;;;;;16.17;9.27;;;;;;;;;;4969010;28;20102;-62
2022/11/28 10:19:30;;;;;;;19.45;10.18;;;;;;;;;;4986554;28;20344;-62
2022/11/28 10:22:00;;;;;;;14.70;7.60;;;;;;;;;;4986734;28;20068;-62
2022/11/28 10:24:42;;;;;;;14.27;7.70;;;;;;;;;;4987187;28;20032;-63
2022/11/28 10:27:13;;;;;;;12.00;6.20;;;;;;;;;;4969754;28;20021;-62
2022/11/28 10:29:55;;;;;;;16.52;6.88;;;;;;;;;;4969304;28;20510;-63
2022/11/28 10:32:31;;;;;;;17.38;7.18;;;;;;;;;;4970471;28;20467;-62
2022/11/28 10:35:29;;;;;;;13.02;7.88;;;;;;;;;;4969704;28;20359;-62
2022/11/28 10:37:55;;;;;;;13.57;6.82;;;;;;;;;;4986119;28;20486;-62
2022/11/28 10:40:50;;;;;;;14.07;7.30;;;;;;;;;;4975917;28;20447;-62
2022/11/28 10:43:34;;;;;;;19.92;7.85;;;;;;;;;;4999246;28;20033;-63
2022/11/28 10:46:34;;;;;;;16.80;7.78;;;;;;;;;;4986475;28;20154;-63
2022/11/28 10:49:25;;;;;;;12.75;7.68;;;;;;;;;;4986531;28;20399;-62
2022/11/28 10:51:53;;;;;;;18.45;9.40;;;;;;;;;;4948313;28;20391;-61
2022/11/28 10:54:45;;;;;;;22.38;10.30;;;;;;;;;;4967355;28;20320;-62
2022/11/28 10:57:21;;;;;;;16.25;8.23;;;;;;;;;;4965956;28;20436;-63
2022/11/28 11:00:13;;;;;;;15.18;5.30;;;;;;;;;;4981442;28;20480;-63
2022/11/28 11:02:49;;;;;;;18.48;9.85;;;;;;;;;;4966795;28;20386;-62
2022/11/28 11:05:27;;;;;;;18.45;8.98;;;;;;;;;;4966625;28;20471;-62
2022/11/28 11:08:08;;;;;;;19.52;7.43;;;;;;;;;;4966722;28;20440;-63
2022/11/28 11:11:26;;;;;;;15.73;7.53;;;;;;;;;;4967608;28;20332;-62
2022/11/28 11:13:59;;;;;;;13.60;6.45;;;;;;;;;;4976344;28;20384;-62
2022/11/28 11:16:45;;;;;;;15.38;7.03;;;;;;;;;;4967040;28;20479;-62
2022/11/28 11:19:35;;;;;;;20.05;9.23;;;;;;;;;;4979074;28;20455;-62
2022/11/28 11:22:18;;;;;;;78.43;38.85;;;;;;;;;;4967731;28;20053;-62
2022/11/28 11:25:02;;;;;;;96.80;30.85;;;;;;;;;;4967174;28;20398;-63
2022/11/28 11:27:29;;;;;;;46.47;16.90;;;;;;;;;;4968775;28;20371;-62
2022/11/28 11:29:55;;;;;;;43.08;15.63;;;;;;;;;;4966625;28;20382;-63
2022/11/28 11:32:27;;;;;;;23.38;11.48;;;;;;;;;;4967171;28;20414;-62
2022/11/28 11:34:54;;;;;;;21.75;8.70;;;;;;;;;;4981686;28;20156;-62
2022/11/28 11:37:33;;;;;;;44.50;14.93;;;;;;;;;;4981374;28;20368;-62
2022/11/28 11:40:01;;;;;;;19.30;10.43;;;;;;;;;;4968476;28;20363;-62
2022/11/28 11:42:31;;;;;;;17.77;7.13;;;;;;;;;;4967348;28;20112;-62
2022/11/28 11:45:31;;;;;;;19.20;8.80;;;;;;;;;;4967531;28;20091;-63
2022/11/28 11:47:57;;;;;;;21.05;9.00;;;;;;;;;;4966773;28;20515;-63
2022/11/28 11:50:26;;;;;;;46.00;17.55;;;;;;;;;;4967353;28;20416;-61
2022/11/28 11:53:11;;;;;;;38.10;14.45;;;;;;;;;;4966540;28;20426;-62
2022/11/28 11:55:50;;;;;;;20.85;9.13;;;;;;;;;;4966841;28;20433;-63
2022/11/28 11:58:24;;;;;;;38.63;12.52;;;;;;;;;;4982801;28;20506;-62
2022/11/28 12:00:52;;;;;;;19.08;7.40;;;;;;;;;;4969951;28;20447;-63
2022/11/28 12:03:40;;;;;;;48.45;17.80;;;;;;;;;;4985026;28;20431;-62
2022/11/28 12:06:23;;;;;;;44.97;15.82;;;;;;;;;;4967964;28;20368;-62
2022/11/28 12:08:55;;;;;;;59.47;20.42;;;;;;;;;;4984874;28;20063;-63
2022/11/28 12:11:29;;;;;;;30.95;11.82;;;;;;;;;;4970102;28;20460;-62
2022/11/28 12:14:23;;;;;;;21.02;9.18;;;;;;;;;;4984660;28;20349;-62
2022/11/28 12:17:30;;;;;;;15.65;7.50;;;;;;;;;;4981645;28;20373;-63
2022/11/28 12:20:19;;;;;;;16.58;7.30;;;;;;;;;;4956503;28;20108;-62
2022/11/28 12:23:22;;;;;;;19.83;8.35;;;;;;;;;;4970217;28;20440;-61
2022/11/28 12:26:20;;;;;;;16.80;7.35;;;;;;;;;;4969874;28;20452;-62
2022/11/28 12:29:10;;;;;;;22.52;10.27;;;;;;;;;;4953697;28;20068;-62
2022/11/28 12:31:59;;;;;;;15.95;7.03;;;;;;;;;;4968133;28;20309;-62
2022/11/28 12:35:00;;;;;;;19.75;8.35;;;;;;;;;;4968177;28;20440;-61
2022/11/28 12:37:51;;;;;;;20.52;9.98;;;;;;;;;;4970754;28;20457;-62
2022/11/28 12:40:28;;;;;;;31.33;12.80;;;;;;;;;;4968586;28;20372;-62
2022/11/28 12:43:43;;;;;;;24.70;11.02;;;;;;;;;;4971334;28;20056;-62
2022/11/28 12:46:51;;;;;;;16.63;8.18;;;;;;;;;;4969131;28;20325;-63
2022/11/28 12:49:34;;;;;;;20.35;7.97;;;;;;;;;;4967189;28;20041;-61
2022/11/28 12:52:32;;;;;;;22.80;8.98;;;;;;;;;;4968850;28;20395;-62
2022/11/28 12:55:15;;;;;;;18.48;8.18;;;;;;;;;;4946240;28;20410;-62
2022/11/28 12:58:11;;;;;;;25.60;8.45;;;;;;;;;;4969787;28;20395;-63
2022/11/28 13:01:07;;;;;;;74.88;20.23;;;;;;;;;;4969123;28;20471;-62
2022/11/28 13:04:12;;;;;;;31.95;12.10;;;;;;;;;;4967496;28;20436;-62
2022/11/28 13:07:09;;;;;;;21.65;9.30;;;;;;;;;;4968051;28;20478;-63
2022/11/28 13:10:17;;;;;;;22.58;8.43;;;;;;;;;;4967633;28;20380;-62
2022/11/28 13:13:04;;;;;;;34.97;14.57;;;;;;;;;;4966133;28;20411;-62
2022/11/28 13:15:51;;;;;;;18.95;7.75;;;;;;;;;;4968740;28;20352;-61
2022/11/28 13:18:44;;;;;;;193.77;55.03;;;;;;;;;;4969974;28;20041;-62
2022/11/28 13:21:46;;;;;;;48.40;16.67;;;;;;;;;;4969761;28;20026;-61
2022/11/28 13:24:47;;;;;;;36.50;10.50;;;;;;;;;;4930086;28;20385;-63
2022/11/28 13:27:43;;;;;;;22.35;9.90;;;;;;;;;;4969435;28;20356;-62
2022/11/28 13:30:24;;;;;;;26.02;10.70;;;;;;;;;;4968709;28;20519;-62
2022/11/28 13:33:12;;;;;;;18.58;8.25;;;;;;;;;;4968431;28;20056;-62
2022/11/28 13:35:41;;;;;;;23.40;8.32;;;;;;;;;;4967352;28;20472;-63
2022/11/28 13:38:19;;;;;;;13.45;6.20;;;;;;;;;;4967077;28;20330;-61
2022/11/28 13:40:58;;;;;;;18.17;7.95;;;;;;;;;;4966944;28;20521;-62
2022/11/28 13:43:54;;;;;;;29.92;10.88;;;;;;;;;;4967073;28;20432;-61
2022/11/28 13:46:20;;;;;;;18.85;8.70;;;;;;;;;;4968311;28;20345;-62
2022/11/28 13:48:50;;;;;;;22.05;7.65;;;;;;;;;;4967658;28;20436;-62
2022/11/28 13:51:37;;;;;;;25.17;10.45;;;;;;;;;;4969554;28;20112;-62
2022/11/28 13:54:18;;;;;;;9.48;5.03;;;;;;;;;;4968157;28;20558;-62
2022/11/28 13:57:07;;;;;;;31.30;11.10;;;;;;;;;;4967773;28;20363;-62
2022/11/28 13:59:33;;;;;;;83.40;26.02;;;;;;;;;;4961914;28;20457;-62
2022/11/28 14:02:02;;;;;;;39.42;15.60;;;;;;;;;;4967329;28;20534;-62
2022/11/28 14:04:29;;;;;;;30.83;13.95;;;;;;;;;;4968219;28;20340;-63
2022/11/28 14:07:03;;;;;;;36.95;13.88;;;;;;;;;;4966928;28;20356;-63
2022/11/28 14:09:57;;;;;;;28.60;11.35;;;;;;;;;;4967965;28;20448;-62
2022/11/28 14:12:39;;;;;;;31.30;13.15;;;;;;;;;;4968814;28;20056;-63
2022/11/28 14:15:28;;;;;;;20.65;9.95;;;;;;;;;;4967510;28;20518;-62
2022/11/28 14:18:31;;;;;;;26.58;9.02;;;;;;;;;;4966486;28;20606;-63
2022/11/28 14:21:03;;;;;;;17.73;8.98;;;;;;;;;;4967120;28;20037;-61
2022/11/28 14:23:49;;;;;;;33.85;13.73;;;;;;;;;;4966843;28;20141;-63
2022/11/28 14:26:35;;;;;;;26.30;11.85;;;;;;;;;;4966102;28;20026;-63
2022/11/28 14:29:05;;;;;;;30.05;13.60;;;;;;;;;;4965928;28;20451;-63
2022/11/28 14:31:38;;;;;;;22.23;10.77;;;;;;;;;;4967752;28;20321;-62
2022/11/28 14:34:43;;;;;;;38.78;15.38;;;;;;;;;;4965853;28;20029;-62
2022/11/28 14:37:23;;;;;;;22.52;10.57;;;;;;;;;;4967848;28;20448;-62
2022/11/28 14:39:50;;;;;;;33.75;18.02;;;;;;;;;;4967244;28;20388;-62
2022/11/28 14:42:16;;;;;;;33.70;17.33;;;;;;;;;;4965809;28;20337;-62
2022/11/28 14:44:58;;;;;;;23.48;10.77;;;;;;;;;;4967998;28;20033;-62
2022/11/28 14:47:26;;;;;;;25.10;11.95;;;;;;;;;;4967798;28;20455;-61
2022/11/28 14:50:03;;;;;;;34.75;15.52;;;;;;;;;;4967538;28;20045;-62
2022/11/28 14:52:30;;;;;;;36.30;15.07;;;;;;;;;;4968326;28;20436;-63
2022/11/28 14:54:57;;;;;;;27.30;12.68;;;;;;;;;;4966870;28;20041;-62
2022/11/28 14:57:25;;;;;;;32.10;16.13;;;;;;;;;;4967313;28;20355;-62
2022/11/28 14:59:53;;;;;;;30.48;13.70;;;;;;;;;;4966578;28;20483;-62
2022/11/28 15:02:44;;;;;;;37.63;16.05;;;;;;;;;;4966070;28;20479;-62
2022/11/28 15:05:20;;;;;;;38.15;15.55;;;;;;;;;;4965166;28;20476;-61
2022/11/28 15:08:44;;;;;;;32.65;14.55;;;;;;;;;;4965292;28;20463;-66
2022/11/28 15:11:39;;;;;;;39.63;14.80;;;;;;;;;;4967100;28;20379;-62